createdAt,value
2022-12-23T00:01:23.954Z,30.02
2022-12-23T00:03:51.230Z,32.72
2022-12-23T00:06:19.412Z,29.45
2022-12-23T00:08:46.954Z,29.92
2022-12-23T00:11:18.557Z,31.42
2022-12-23T00:14:04.263Z,29.05
2022-12-23T00:18:57.994Z,29.55
2022-12-23T00:21:24.679Z,30.75
2022-12-23T00:23:51.799Z,29.30
2022-12-23T00:26:21.638Z,30.52
2022-12-23T00:28:48.741Z,29.83
2022-12-23T00:31:18.995Z,30.75
2022-12-23T00:33:47.888Z,31.20
2022-12-23T00:36:27.210Z,30.73
2022-12-23T00:39:13.053Z,30.83
2022-12-23T00:44:25.057Z,26.92
2022-12-23T00:46:52.036Z,28.77
2022-12-23T00:49:38.585Z,26.30
2022-12-23T00:52:07.482Z,29.58
2022-12-23T00:54:34.489Z,31.90
2022-12-23T00:57:01.710Z,28.02
2022-12-23T00:59:28.425Z,28.73
2022-12-23T01:02:13.807Z,29.52
2022-12-23T01:04:59.093Z,26.00
2022-12-23T01:07:26.137Z,27.58
2022-12-23T01:09:52.738Z,29.35
2022-12-23T01:12:19.753Z,27.33
2022-12-23T01:14:46.503Z,30.08
2022-12-23T01:17:13.846Z,26.27
2022-12-23T01:19:40.695Z,27.10
2022-12-23T01:22:07.442Z,27.15
2022-12-23T01:24:34.209Z,28.20
2022-12-23T01:27:01.052Z,27.15
2022-12-23T01:29:27.750Z,25.20
2022-12-23T01:31:54.604Z,28.25
2022-12-23T01:34:21.399Z,25.48
2022-12-23T01:36:48.041Z,23.90
2022-12-23T01:39:14.797Z,28.08
2022-12-23T01:42:00.045Z,25.70
2022-12-23T01:45:06.114Z,24.20
2022-12-23T01:47:33.406Z,25.27
2022-12-23T01:50:08.765Z,26.45
2022-12-23T01:55:03.744Z,27.35
2022-12-23T01:57:30.695Z,27.42
2022-12-23T02:00:15.874Z,25.23
2022-12-23T02:03:02.609Z,26.05
2022-12-23T02:05:29.456Z,26.45
2022-12-23T02:08:14.822Z,25.80
2022-12-23T02:10:52.970Z,28.20
2022-12-23T02:14:14.522Z,28.35
2022-12-23T02:16:46.437Z,27.38
2022-12-23T02:19:30.252Z,27.33
2022-12-23T02:22:24.253Z,29.52
2022-12-23T02:25:24.823Z,28.58
2022-12-23T02:28:17.535Z,27.65
2022-12-23T02:30:57.400Z,27.13
2022-12-23T02:33:36.738Z,25.33
2022-12-23T02:36:28.202Z,26.38
2022-12-23T02:39:00.202Z,29.02
2022-12-23T02:41:45.309Z,31.10
2022-12-23T02:44:31.061Z,26.95
2022-12-23T02:47:20.731Z,27.85
2022-12-23T02:49:56.807Z,25.60
2022-12-23T02:52:27.533Z,24.80
2022-12-23T02:54:57.711Z,27.73
2022-12-23T02:57:30.062Z,28.00
2022-12-23T02:59:57.185Z,27.92
2022-12-23T03:02:24.021Z,28.55
2022-12-23T03:04:50.790Z,27.90
2022-12-23T03:07:21.566Z,27.75
2022-12-23T03:10:06.736Z,26.80
2022-12-23T03:13:02.382Z,27.88
2022-12-23T03:15:35.272Z,29.30
2022-12-23T03:18:26.757Z,30.17
2022-12-23T03:21:28.554Z,28.90
2022-12-23T03:24:23.122Z,27.88
2022-12-23T03:26:57.507Z,28.45
2022-12-23T03:29:29.323Z,29.57
2022-12-23T03:31:58.779Z,30.48
2022-12-23T03:34:30.150Z,27.52
2022-12-23T03:36:59.384Z,28.15
2022-12-23T03:39:36.018Z,27.80
2022-12-23T03:42:17.839Z,29.88
2022-12-23T03:45:10.685Z,28.58
2022-12-23T03:47:42.179Z,30.60
2022-12-23T03:50:11.703Z,33.35
2022-12-23T03:52:41.819Z,29.42
2022-12-23T03:55:13.873Z,30.00
2022-12-23T03:58:28.550Z,28.58
2022-12-23T04:01:01.908Z,30.65
2022-12-23T04:03:48.003Z,30.50
2022-12-23T04:06:16.432Z,29.05
2022-12-23T04:08:44.095Z,31.50
2022-12-23T04:11:11.530Z,33.90
2022-12-23T04:13:38.419Z,33.38
2022-12-23T04:16:05.765Z,31.98
2022-12-23T04:18:32.557Z,30.17
2022-12-23T04:20:59.395Z,28.60
2022-12-23T04:23:26.129Z,31.35
2022-12-23T04:25:52.811Z,30.80
2022-12-23T04:28:20.169Z,30.15
2022-12-23T04:30:46.929Z,32.05
2022-12-23T04:33:13.525Z,31.05
2022-12-23T04:35:40.249Z,30.83
2022-12-23T04:38:07.668Z,29.98
2022-12-23T04:40:34.588Z,31.15
2022-12-23T04:43:01.265Z,31.92
2022-12-23T04:45:27.995Z,33.83
2022-12-23T04:47:55.478Z,32.58
2022-12-23T04:50:22.162Z,34.65
2022-12-23T04:52:48.872Z,32.47
2022-12-23T04:55:15.689Z,37.15
2022-12-23T04:57:42.364Z,33.70
2022-12-23T05:00:09.636Z,33.53
2022-12-23T05:02:36.525Z,31.90
2022-12-23T05:05:03.860Z,31.52
2022-12-23T05:07:30.629Z,36.60
2022-12-23T05:10:01.893Z,33.60
2022-12-23T05:12:30.433Z,34.38
2022-12-23T05:14:57.227Z,31.90
2022-12-23T05:17:24.014Z,36.13
2022-12-23T05:19:50.642Z,33.70
2022-12-23T05:22:17.357Z,35.42
2022-12-23T05:24:44.169Z,36.55
2022-12-23T05:27:10.794Z,36.33
2022-12-23T05:29:37.712Z,35.22
2022-12-23T05:32:04.654Z,37.33
2022-12-23T05:38:11.094Z,33.70
2022-12-23T05:40:37.725Z,32.97
2022-12-23T05:43:04.784Z,32.42
2022-12-23T05:45:31.619Z,37.42
2022-12-23T05:47:58.496Z,34.92
2022-12-23T05:50:25.154Z,33.20
2022-12-23T05:52:51.978Z,36.40
2022-12-23T05:55:18.855Z,32.50
2022-12-23T05:57:45.513Z,34.80
2022-12-23T06:00:12.712Z,35.20
2022-12-23T06:02:40.013Z,31.83
2022-12-23T06:05:07.112Z,33.28
2022-12-23T06:07:33.817Z,34.90
2022-12-23T06:10:00.509Z,34.30
2022-12-23T06:12:27.322Z,33.25
2022-12-23T06:14:54.115Z,32.70
2022-12-23T06:17:20.946Z,35.22
2022-12-23T06:19:47.582Z,35.85
2022-12-23T06:22:14.603Z,33.85
2022-12-23T06:24:41.375Z,35.20
2022-12-23T06:27:08.055Z,35.10
2022-12-23T06:29:34.867Z,32.60
2022-12-23T06:32:01.510Z,34.33
2022-12-23T06:34:28.441Z,33.20
2022-12-23T06:36:55.120Z,38.20
2022-12-23T06:39:22.005Z,35.55
2022-12-23T06:41:48.698Z,34.70
2022-12-23T06:44:15.461Z,37.42
2022-12-23T06:46:42.093Z,34.30
2022-12-23T06:49:13.125Z,34.22
2022-12-23T06:51:40.511Z,38.55
2022-12-23T06:54:07.232Z,34.10
2022-12-23T06:56:34.274Z,33.45
2022-12-23T06:59:00.945Z,35.33
2022-12-23T07:01:27.664Z,35.25
2022-12-23T07:03:54.515Z,35.42
2022-12-23T07:06:21.130Z,37.90
2022-12-23T07:08:47.777Z,34.30
2022-12-23T07:11:14.402Z,36.47
2022-12-23T07:13:41.162Z,36.17
2022-12-23T07:16:08.854Z,36.08
2022-12-23T07:18:35.952Z,35.90
2022-12-23T07:21:03.525Z,35.42
2022-12-23T07:23:31.020Z,34.58
2022-12-23T07:25:57.730Z,36.70
2022-12-23T07:28:24.726Z,36.63
2022-12-23T07:30:51.583Z,36.53
2022-12-23T07:33:18.299Z,36.20
2022-12-23T07:35:45.036Z,35.35
2022-12-23T07:38:11.962Z,35.42
2022-12-23T07:40:39.096Z,35.95
2022-12-23T07:43:05.806Z,36.08
2022-12-23T07:45:32.557Z,34.88
2022-12-23T07:48:00.965Z,36.53
2022-12-23T07:50:28.391Z,37.22
2022-12-23T07:53:18.700Z,39.60
2022-12-23T07:55:49.123Z,37.80
2022-12-23T07:58:19.896Z,37.85
2022-12-23T08:00:46.649Z,39.45
2022-12-23T08:03:13.565Z,38.20
2022-12-23T08:05:40.259Z,36.30
2022-12-23T08:08:06.993Z,35.65
2022-12-23T08:10:33.960Z,37.00
2022-12-23T08:13:01.044Z,36.25
2022-12-23T08:15:27.693Z,36.10
2022-12-23T08:17:56.267Z,36.33
2022-12-23T08:20:22.902Z,38.58
2022-12-23T08:22:49.515Z,39.00
2022-12-23T08:25:16.298Z,36.00
2022-12-23T08:27:42.873Z,35.58
2022-12-23T08:30:10.031Z,38.75
2022-12-23T08:32:36.840Z,38.47
2022-12-23T08:35:03.584Z,35.80
2022-12-23T08:37:30.312Z,38.45
2022-12-23T08:39:56.981Z,35.45
2022-12-23T08:42:23.688Z,32.60
2022-12-23T08:44:50.266Z,33.15
2022-12-23T08:47:16.950Z,33.38
2022-12-23T08:49:43.693Z,32.35
2022-12-23T08:52:10.413Z,31.45
2022-12-23T08:54:37.086Z,33.28
2022-12-23T08:57:03.825Z,32.65
2022-12-23T08:59:30.441Z,31.85
2022-12-23T09:02:02.219Z,33.38
2022-12-23T09:04:29.053Z,31.60
2022-12-23T09:06:55.848Z,31.85
2022-12-23T09:09:22.558Z,31.17
2022-12-23T09:11:49.336Z,31.52
2022-12-23T09:14:16.032Z,32.90
2022-12-23T09:16:42.888Z,33.25
2022-12-23T09:19:09.665Z,32.03
2022-12-23T09:21:36.535Z,32.88
2022-12-23T09:24:03.295Z,32.60
2022-12-23T09:26:30.711Z,33.03
2022-12-23T09:28:57.503Z,32.30
2022-12-23T09:31:27.951Z,31.02
2022-12-23T09:33:59.314Z,30.60
2022-12-23T09:36:25.949Z,34.92
2022-12-23T09:38:57.018Z,32.63
2022-12-23T09:41:48.834Z,36.63
2022-12-23T09:44:27.746Z,35.05
2022-12-23T09:46:58.767Z,33.97
2022-12-23T09:49:25.650Z,34.92
2022-12-23T09:52:00.271Z,32.90
2022-12-23T09:54:29.512Z,23.98
2022-12-23T09:57:18.052Z,36.88
2022-12-23T09:59:59.873Z,36.72
2022-12-23T10:02:29.792Z,35.90
2022-12-23T10:05:24.755Z,33.08
2022-12-23T10:07:57.513Z,32.65
2022-12-23T10:10:38.949Z,32.65
2022-12-23T10:13:11.968Z,32.42
2022-12-23T10:15:45.022Z,34.15
2022-12-23T10:18:47.196Z,36.15
2022-12-23T10:21:31.276Z,33.35
2022-12-23T10:23:59.933Z,35.58
2022-12-23T10:26:32.672Z,35.85
2022-12-23T10:29:19.341Z,33.85
2022-12-23T10:31:58.577Z,35.30
2022-12-23T10:34:38.110Z,33.55
2022-12-23T10:37:20.278Z,35.70
2022-12-23T10:40:16.292Z,34.90
2022-12-23T10:42:51.260Z,34.63
2022-12-23T10:45:41.319Z,36.35
2022-12-23T10:48:19.816Z,35.80
2022-12-23T10:50:46.573Z,36.83
2022-12-23T10:53:20.324Z,32.30
2022-12-23T10:55:49.046Z,36.95
2022-12-23T10:58:18.428Z,33.83
2022-12-23T11:01:20.311Z,37.75
2022-12-23T11:04:04.944Z,33.70
2022-12-23T11:06:37.127Z,32.42
2022-12-23T11:09:05.579Z,34.92
2022-12-23T11:11:54.608Z,40.75
2022-12-23T11:14:41.701Z,34.83
2022-12-23T11:17:26.980Z,37.85
2022-12-23T11:20:15.879Z,39.55
2022-12-23T11:22:51.701Z,39.35
2022-12-23T11:25:27.690Z,37.33
2022-12-23T11:27:57.891Z,36.67
2022-12-23T11:30:24.890Z,38.17
2022-12-23T11:32:52.550Z,37.70
2022-12-23T11:35:25.313Z,37.33
2022-12-23T11:37:52.074Z,35.60
2022-12-23T11:40:38.239Z,36.60
2022-12-23T11:43:06.935Z,36.38
2022-12-23T11:45:36.083Z,36.85
2022-12-23T11:48:07.166Z,37.60
2022-12-23T11:50:37.790Z,37.70
2022-12-23T11:53:10.340Z,38.13
2022-12-23T11:55:38.421Z,36.10
2022-12-23T11:58:05.284Z,34.35
2022-12-23T12:00:40.754Z,37.13
2022-12-23T12:03:16.772Z,37.20
2022-12-23T12:08:37.108Z,38.47
2022-12-23T12:11:13.679Z,37.35
2022-12-23T12:13:42.438Z,37.42
2022-12-23T12:16:32.548Z,36.40
2022-12-23T12:19:05.678Z,38.35
2022-12-23T12:21:37.060Z,37.33
2022-12-23T12:24:19.028Z,41.17
2022-12-23T12:26:51.232Z,41.80
2022-12-23T12:29:36.575Z,41.03
2022-12-23T12:32:07.283Z,40.53
2022-12-23T12:34:56.542Z,40.60
2022-12-23T12:37:43.244Z,42.35
2022-12-23T12:40:23.857Z,40.10
2022-12-23T12:43:00.098Z,40.50
2022-12-23T12:45:34.597Z,39.15
2022-12-23T12:48:26.054Z,39.23
2022-12-23T12:51:18.951Z,40.55
2022-12-23T12:54:05.956Z,38.00
2022-12-23T12:56:43.958Z,39.42
2022-12-23T12:59:37.065Z,42.67
2022-12-23T13:02:09.957Z,42.83
2022-12-23T13:04:56.641Z,41.55
2022-12-23T13:07:48.421Z,38.88
2022-12-23T13:10:25.164Z,44.33
2022-12-23T13:13:13.567Z,44.22
2022-12-23T13:16:06.879Z,46.85
2022-12-23T13:18:39.420Z,43.30
2022-12-23T13:21:13.414Z,45.38
2022-12-23T13:23:59.255Z,41.88
2022-12-23T13:26:36.424Z,41.30
2022-12-23T13:29:30.645Z,41.83
2022-12-23T13:32:21.911Z,47.08
2022-12-23T13:35:08.355Z,42.28
2022-12-23T13:37:44.191Z,42.38
2022-12-23T13:40:24.948Z,44.55
2022-12-23T13:42:55.883Z,40.15
2022-12-23T13:45:26.621Z,44.28
2022-12-23T13:48:08.546Z,43.70
2022-12-23T13:50:46.528Z,49.92
2022-12-23T13:53:20.558Z,46.53
2022-12-23T13:56:10.626Z,45.55
2022-12-23T13:58:39.489Z,53.70
2022-12-23T14:01:10.254Z,48.80
2022-12-23T14:03:39.112Z,53.88
2022-12-23T14:06:24.237Z,49.25
2022-12-23T14:08:52.276Z,49.67
2022-12-23T14:11:19.544Z,59.17
2022-12-23T14:13:52.527Z,50.25
2022-12-23T14:16:32.202Z,49.67
2022-12-23T14:19:29.871Z,47.00
2022-12-23T14:22:05.476Z,45.25
2022-12-23T14:24:55.335Z,47.45
2022-12-23T14:27:31.280Z,45.58
2022-12-23T14:30:11.855Z,52.35
2022-12-23T14:33:19.179Z,47.33
2022-12-23T14:35:45.823Z,47.45
2022-12-23T14:38:15.471Z,48.63
2022-12-23T14:40:42.160Z,50.65
2022-12-23T14:43:32.068Z,48.35
2022-12-23T14:46:05.022Z,47.78
2022-12-23T14:48:34.855Z,48.78
2022-12-23T14:51:13.801Z,49.67
2022-12-23T14:53:53.847Z,48.60
2022-12-23T14:56:38.852Z,49.08
2022-12-23T14:59:14.823Z,52.38
2022-12-23T15:01:57.207Z,52.80
2022-12-23T15:04:28.516Z,53.10
2022-12-23T15:06:59.189Z,53.15
2022-12-23T15:09:45.429Z,60.00
2022-12-23T15:12:15.477Z,54.35
2022-12-23T15:14:50.377Z,56.75
2022-12-23T15:17:30.263Z,53.03
2022-12-23T15:20:20.483Z,53.90
2022-12-23T15:22:48.303Z,52.90
2022-12-23T15:25:25.128Z,53.35
2022-12-23T15:28:00.896Z,51.80
2022-12-23T15:30:30.891Z,52.72
2022-12-23T15:32:59.639Z,53.75
2022-12-23T15:35:32.580Z,52.97
2022-12-23T15:38:00.939Z,53.33
2022-12-23T15:40:33.846Z,54.15
2022-12-23T15:43:01.670Z,53.17
2022-12-23T15:45:42.628Z,51.65
2022-12-23T15:48:29.458Z,51.75
2022-12-23T15:51:08.533Z,49.08
2022-12-23T15:53:37.856Z,52.35
2022-12-23T15:56:08.860Z,52.60
2022-12-23T15:58:39.083Z,49.72
2022-12-23T16:01:06.670Z,49.20
2022-12-23T16:03:36.659Z,49.47
2022-12-23T16:06:41.969Z,48.03
2022-12-23T16:09:17.921Z,53.72
2022-12-23T16:12:05.580Z,52.42
2022-12-23T16:14:40.498Z,51.22
2022-12-23T16:17:10.222Z,52.67
2022-12-23T16:19:44.120Z,49.92
2022-12-23T16:22:30.151Z,48.08
2022-12-23T16:24:56.873Z,52.45
2022-12-23T16:27:37.087Z,52.45
2022-12-23T16:30:19.732Z,52.17
2022-12-23T16:32:52.381Z,52.80
2022-12-23T16:35:40.348Z,49.28
2022-12-23T16:38:20.252Z,49.97
2022-12-23T16:40:51.290Z,48.45
2022-12-23T16:43:19.327Z,50.50
2022-12-23T16:45:47.648Z,50.25
2022-12-23T16:48:23.800Z,49.17
2022-12-23T16:50:52.468Z,51.90
2022-12-23T16:53:19.610Z,50.42
2022-12-23T16:55:52.426Z,53.15
2022-12-23T16:58:23.422Z,51.20
2022-12-23T17:00:51.581Z,53.97
2022-12-23T17:03:19.770Z,51.88
2022-12-23T17:05:47.323Z,50.13
2022-12-23T17:08:14.543Z,52.88
2022-12-23T17:10:42.399Z,55.53
2022-12-23T17:13:11.954Z,56.80
2022-12-23T17:15:38.732Z,56.35
2022-12-23T17:18:12.392Z,53.67
2022-12-23T17:20:39.169Z,52.63
2022-12-23T17:23:06.232Z,55.17
2022-12-23T17:25:33.323Z,51.30
2022-12-23T17:28:00.031Z,51.13
2022-12-23T17:30:26.776Z,51.05
2022-12-23T17:32:58.164Z,50.17
2022-12-23T17:35:25.673Z,49.95
2022-12-23T17:37:53.398Z,49.10
2022-12-23T17:40:20.947Z,50.15
2022-12-23T17:42:47.922Z,48.13
2022-12-23T17:45:25.846Z,50.40
2022-12-23T17:47:53.250Z,48.00
2022-12-23T17:50:20.440Z,48.42
2022-12-23T17:52:47.640Z,49.42
2022-12-23T17:55:21.394Z,51.05
2022-12-23T17:57:48.495Z,48.42
2022-12-23T18:00:24.125Z,51.92
2022-12-23T18:02:56.625Z,47.17
2022-12-23T18:05:27.151Z,47.75
2022-12-23T18:07:55.090Z,53.38
2022-12-23T18:10:27.765Z,50.17
2022-12-23T18:12:58.048Z,47.58
2022-12-23T18:15:36.820Z,52.05
2022-12-23T18:18:13.613Z,55.25
2022-12-23T18:20:41.213Z,50.83
2022-12-23T18:23:13.197Z,52.70
2022-12-23T18:25:40.514Z,48.95
2022-12-23T18:28:07.824Z,53.42
2022-12-23T18:30:34.654Z,48.67
2022-12-23T18:33:01.364Z,50.08
2022-12-23T18:35:38.465Z,51.53
2022-12-23T18:38:05.315Z,54.03
2022-12-23T18:40:33.232Z,50.13
2022-12-23T18:43:00.130Z,53.15
2022-12-23T18:45:31.976Z,49.05
2022-12-23T18:47:59.286Z,52.10
2022-12-23T18:50:27.012Z,49.38
2022-12-23T18:52:54.272Z,51.55
2022-12-23T18:55:21.478Z,50.25
2022-12-23T18:57:49.429Z,54.00
2022-12-23T19:00:22.128Z,51.92
2022-12-23T19:02:50.197Z,50.55
2022-12-23T19:05:29.076Z,53.38
2022-12-23T19:07:57.524Z,50.70
2022-12-23T19:10:24.153Z,50.22
2022-12-23T19:12:51.498Z,50.88
2022-12-23T19:15:19.030Z,52.45
2022-12-23T19:17:46.528Z,52.22
2022-12-23T19:20:15.664Z,51.00
2022-12-23T19:22:42.457Z,51.72
2022-12-23T19:25:11.677Z,50.30
2022-12-23T19:27:44.648Z,51.22
2022-12-23T19:30:14.294Z,49.20
2022-12-23T19:32:41.075Z,53.33
2022-12-23T19:35:08.454Z,50.10
2022-12-23T19:37:36.480Z,50.92
2022-12-23T19:40:03.491Z,48.15
2022-12-23T19:42:30.726Z,48.80
2022-12-23T19:44:57.591Z,51.20
2022-12-23T19:47:24.261Z,53.08
2022-12-23T19:49:50.972Z,49.45
2022-12-23T19:52:17.775Z,50.35
2022-12-23T19:54:44.489Z,57.20
2022-12-23T19:57:11.216Z,50.25
2022-12-23T19:59:38.062Z,50.20
2022-12-23T20:02:04.730Z,54.85
2022-12-23T20:04:32.171Z,53.35
2022-12-23T20:06:58.910Z,49.53
2022-12-23T20:09:25.697Z,51.40
2022-12-23T20:11:52.357Z,51.67
2022-12-23T20:14:19.541Z,50.00
2022-12-23T20:16:48.341Z,52.70
2022-12-23T20:19:15.663Z,52.15
2022-12-23T20:21:42.376Z,55.15
2022-12-23T20:24:09.805Z,53.90
2022-12-23T20:26:36.664Z,51.30
2022-12-23T20:29:03.420Z,50.58
2022-12-23T20:31:32.575Z,51.10
2022-12-23T20:34:00.873Z,48.42
2022-12-23T20:36:30.727Z,48.15
2022-12-23T20:38:58.217Z,51.00
2022-12-23T20:41:27.694Z,49.55
2022-12-23T20:44:31.829Z,51.42
2022-12-23T20:46:41.487Z,48.50
2022-12-23T20:49:08.283Z,51.08
2022-12-23T20:51:35.240Z,49.03
2022-12-23T20:54:01.992Z,49.88
2022-12-23T20:56:30.454Z,50.88
2022-12-23T20:58:59.532Z,48.30
2022-12-23T21:01:27.729Z,46.80
2022-12-23T21:03:55.203Z,47.97
2022-12-23T21:06:22.095Z,48.47
2022-12-23T21:08:48.793Z,48.85
2022-12-23T21:11:15.963Z,48.85
2022-12-23T21:13:43.994Z,46.95
2022-12-23T21:16:12.296Z,47.65
2022-12-23T21:18:44.619Z,48.97
2022-12-23T21:21:12.382Z,47.65
2022-12-23T21:23:42.492Z,47.03
2022-12-23T21:26:17.233Z,50.90
2022-12-23T21:28:46.428Z,47.63
2022-12-23T21:31:17.630Z,49.08
2022-12-23T21:33:45.501Z,50.15
2022-12-23T21:36:19.841Z,53.13
2022-12-23T21:38:47.296Z,40.35
2022-12-23T21:41:19.505Z,50.85
2022-12-23T21:43:46.351Z,49.88
2022-12-23T21:46:15.385Z,50.55
2022-12-23T21:48:42.700Z,51.35
2022-12-23T21:51:24.365Z,50.45
2022-12-23T21:53:52.769Z,51.60
2022-12-23T21:56:28.498Z,49.88
2022-12-23T21:59:00.290Z,48.13
2022-12-23T22:01:28.091Z,50.60
2022-12-23T22:03:55.883Z,49.00
2022-12-23T22:06:28.414Z,47.90
2022-12-23T22:08:55.571Z,50.63
2022-12-23T22:11:26.135Z,49.22
2022-12-23T22:13:53.302Z,51.80
2022-12-23T22:16:22.158Z,49.25
2022-12-23T22:18:49.436Z,47.97
2022-12-23T22:21:19.205Z,51.22
2022-12-23T22:23:46.900Z,50.15
2022-12-23T22:26:20.251Z,50.97
2022-12-23T22:28:50.854Z,46.92
2022-12-23T22:31:18.456Z,49.13
2022-12-23T22:33:45.474Z,47.65
2022-12-23T22:36:15.714Z,49.72
2022-12-23T22:38:43.616Z,47.10
2022-12-23T22:41:10.889Z,50.42
2022-12-23T22:43:37.755Z,51.50
2022-12-23T22:46:04.876Z,48.60
2022-12-23T22:48:31.815Z,48.03
2022-12-23T22:51:07.613Z,52.65
2022-12-23T22:53:34.243Z,50.85
2022-12-23T22:56:01.984Z,49.65
2022-12-23T22:58:30.144Z,50.15
2022-12-23T23:00:58.305Z,49.25
2022-12-23T23:03:26.412Z,49.25
2022-12-23T23:06:00.998Z,51.00
2022-12-23T23:08:28.615Z,46.72
2022-12-23T23:10:59.857Z,49.95
2022-12-23T23:13:29.410Z,55.45
2022-12-23T23:15:56.393Z,53.72
2022-12-23T23:18:23.776Z,48.90
2022-12-23T23:20:50.645Z,48.03
2022-12-23T23:23:17.826Z,49.90
2022-12-23T23:25:45.427Z,49.25
2022-12-23T23:28:14.069Z,49.33
2022-12-23T23:30:41.102Z,48.40
2022-12-23T23:33:08.659Z,50.97
2022-12-23T23:35:35.928Z,52.92
2022-12-23T23:38:02.629Z,50.55
2022-12-23T23:40:29.954Z,50.80
2022-12-23T23:42:56.629Z,50.67
2022-12-23T23:45:23.512Z,52.10
2022-12-23T23:47:50.465Z,50.63
2022-12-23T23:50:17.119Z,50.22
2022-12-23T23:52:43.814Z,48.47
2022-12-23T23:55:10.542Z,47.67
2022-12-23T23:57:37.501Z,49.72
